Latest Weather Observations for Moomba Airport

IDS60801

Issued at 7:31 am CDT Tuesday 6 December 2022 (issued every 10 minutes, with the page automatically refreshed every 10 minutes)

About weather observations | Map of weather stations | Latest weather observations for SA | Other Formats
Station Details ID: 017123 Name: MOOMBA AIRPORT Lat: -28.10 Lon: 140.20 Height: 37.8 m
Data from the previous 72 hours. | See also: Recent months at Moomba Airport
Date/Time
CDT
Temp
°C
App
Temp
°C
Dew
Point
°C
Rel
Hum
%
Delta-T
°C
Wind Press
QNH
hPa
Press
MSL
hPa
Rain since
9am
mm
Dir  Spd
km/h
Gust
km/h
Spd
kts
Gust
kts
06/07:30am 25.7 21.7 8.2 33 9.4 ESE 19 24 10 13 1008.3 1008.0 0.0
06/07:00am 24.8 21.1 7.9 34 9.0 SE 17 24 9 13 1008.6 1008.3 0.0
06/06:30am 23.6 20.5 7.3 35 8.5 SE 13 15 7 8 1008.0 1007.7 0.0
06/06:00am 23.1 20.4 7.2 36 8.3 ESE 11 17 6 9 1007.5 1007.2 0.0
06/05:30am 23.9 21.1 7.1 34 8.8 SE 11 15 6 8 1007.3 1007.0 0.0
06/05:00am 24.7 22.0 7.4 33 9.1 SE 11 17 6 9 1007.4 1007.1 0.0
06/04:30am 24.5 21.8 7.2 33 9.1 ESE 11 13 6 7 1007.1 1006.8 0.0
06/04:00am 25.1 22.4 7.3 32 9.4 SE 11 15 6 8 1007.2 1006.9 0.0
06/03:30am 25.2 22.5 7.3 32 9.5 ESE 11 15 6 8 1007.1 1006.8 0.0
06/03:00am 25.8 22.7 7.4 31 9.8 ESE 13 15 7 8 1007.1 1006.8 0.0
06/02:30am 27.4 23.9 7.3 28 10.8 SE 15 19 8 10 1007.3 1007.0 0.0
06/02:00am 29.2 24.1 7.7 26 11.7 SE 24 35 13 19 1007.6 1007.3 0.0
06/01:30am 28.6 25.1 7.2 26 11.5 SSE 15 22 8 12 1008.0 1007.7 0.0
06/01:00am 29.1 25.3 7.7 26 11.6 SSE 17 20 9 11 1008.3 1008.0 0.0
06/12:30am 29.7 25.9 7.6 25 12.0 SSE 17 24 9 13 1008.4 1008.1 0.0
06/12:00am 30.4 27.0 7.6 24 12.5 SSE 15 19 8 10 1008.6 1008.3 0.0
 
Date/Time
CDT
Temp
°C
App
Temp
°C
Dew
Point
°C
Rel
Hum
%
Delta-T
°C
Wind Press
QNH
hPa
Press
MSL
hPa
Rain since
9am
mm
Dir  Spd
km/h
Gust
km/h
Spd
kts
Gust
kts
05/11:30pm 31.1 26.0 7.5 23 12.9 SSE 24 32 13 17 1008.7 1008.4 0.0
05/11:00pm 31.6 26.4 7.3 22 13.3 SSE 24 32 13 17 1008.6 1008.3 0.0
05/10:30pm 32.3 27.3 6.5 20 14.0 SSE 22 30 12 16 1008.4 1008.1 0.0
05/10:00pm 33.0 27.2 6.3 19 14.4 SSE 26 33 14 18 1007.9 1007.6 0.0
05/09:49pm 33.3 27.0 5.8 18 14.8 SSE 28 37 15 20 1007.8 1007.5 0.0
05/09:30pm 33.7 27.1 6.1 18 15.0 SSE 30 44 16 24 1007.3 1007.0 0.0
05/09:23pm 34.0 27.8 6.3 18 15.1 S 28 44 15 24 1007.2 1006.9 0.0
05/09:20pm 34.3 29.4 4.9 16 15.7 SSE 20 43 11 23 1007.2 1006.9 0.0
05/09:00pm 34.8 31.7 3.4 14 16.4 SE 9 13 5 7 1006.7 1006.4 0.0
05/08:30pm 35.5 31.5 2.9 13 17.0 SSE 13 19 7 10 1006.6 1006.3 0.0
05/08:00pm 36.2 32.5 2.3 12 17.5 S 11 13 6 7 1006.3 1006.0 0.0
05/07:30pm 37.0 33.0 2.9 12 17.9 SSW 13 20 7 11 1006.2 1005.9 0.0
05/07:00pm 37.6 33.5 2.1 11 18.4 SSW 13 20 7 11 1006.1 1005.8 0.0
05/06:30pm 38.3 33.5 2.7 11 18.8 SSW 17 24 9 13 1005.8 1005.5 0.0
05/06:17pm 38.1 33.7 2.5 11 18.7 S 15 24 8 13 1005.8 1005.5 0.0
05/06:00pm 38.4 32.8 1.4 10 19.1 S 20 56 11 30 1005.8 1005.5 0.0
05/05:59pm 38.5 32.9 1.5 10 19.1 SSE 20 56 11 30 1005.8 1005.5 0.0
05/05:30pm 38.7 33.7 1.6 10 19.3 SW 17 24 9 13 1005.7 1005.4 0.0
05/05:00pm 38.7 33.4 1.6 10 19.2 SSW 19 30 10 16 1006.1 1005.8 0.0
05/04:30pm 38.5 34.3 1.5 10 19.2 S 13 20 7 11 1006.3 1006.0 0.0
05/04:00pm 38.5 35.0 1.5 10 19.1 WSW 9 20 5 11 1006.5 1006.2 0.0
05/03:30pm 38.1 33.4 1.2 10 19.0 S 15 20 8 11 1006.9 1006.6 0.0
05/03:00pm 37.9 34.7 1.0 10 18.9 SE 7 20 4 11 1007.2 1006.9 0.0
05/02:30pm 38.6 34.8 1.6 10 19.2 SSE 11 19 6 10 1007.6 1007.3 0.0
05/02:00pm 38.5 34.3 1.5 10 19.1 WSW 13 30 7 16 1007.9 1007.6 0.0
05/01:30pm 37.6 32.7 2.1 11 18.5 WSW 17 22 9 12 1008.5 1008.2 0.0
05/01:00pm 37.5 34.3 3.3 12 18.1 SSE 9 17 5 9 1008.8 1008.5 0.0
05/12:30pm 36.6 33.9 2.6 12 17.7 SSW 6 15 3 8 1009.2 1008.9 0.0
05/12:00pm 36.9 32.5 2.8 12 17.9 SW 15 19 8 10 1009.4 1009.1 0.0
05/11:30am 35.8 31.5 3.1 13 17.1 W 15 24 8 13 1009.6 1009.3 0.0
05/11:00am 35.9 32.3 3.2 13 17.1 SW 11 15 6 8 1009.8 1009.5 0.0
05/10:30am 35.7 33.3 5.1 15 16.5 N 7 13 4 7 1009.9 1009.6 0.0
05/10:00am 34.7 31.2 3.3 14 16.3 NE 11 17 6 9 1010.0 1009.7 0.0
05/09:30am 33.4 28.7 3.3 15 15.6 NNE 17 20 9 11 1010.2 1009.9 0.0
05/09:00am 32.3 27.8 4.2 17 14.7 NNE 17 20 9 11 1010.3 1010.0 0.0
05/08:30am 30.7 26.1 3.7 18 13.8 NE 17 22 9 12 1010.4 1010.1 0.0
05/08:00am 28.8 25.6 2.9 19 12.9 NNE 9 13 5 7 1010.3 1010.0 0.0
05/07:30am 26.6 23.5 3.8 23 11.4 NE 9 11 5 6 1009.8 1009.5 0.0
05/07:00am 23.8 20.7 3.7 27 9.8 NNE 9 11 5 6 1009.5 1009.2 0.0
05/06:30am 22.3 18.4 3.4 29 9.1 NNE 13 15 7 8 1009.0 1008.7 0.0
05/06:00am 22.5 18.2 3.1 28 9.3 NNE 15 17 8 9 1008.7 1008.4 0.0
05/05:30am 22.7 18.8 3.3 28 9.4 NNE 13 13 7 7 1008.6 1008.3 0.0
05/05:00am 22.8 19.3 3.4 28 9.4 NE 11 13 6 7 1008.6 1008.3 0.0
05/04:30am 24.0 20.8 3.3 26 10.1 NE 9 11 5 6 1008.6 1008.3 0.0
05/04:00am 24.0 20.5 3.3 26 10.1 NE 11 15 6 8 1008.6 1008.3 0.0
05/03:30am 23.3 19.9 3.8 28 9.5 NE 11 11 6 6 1008.6 1008.3 0.0
05/03:00am 23.0 19.6 4.0 29 9.3 ENE 11 13 6 7 1008.7 1008.4 0.0
05/02:30am 23.3 19.9 3.8 28 9.5 E 11 13 6 7 1008.8 1008.5 0.0
05/02:00am 23.4 19.7 4.4 29 9.4 E 13 15 7 8 1009.0 1008.7 0.0
05/01:30am 24.4 20.9 3.7 26 10.2 E 11 13 6 7 1009.4 1009.1 0.0
05/01:00am 24.7 21.7 3.9 26 10.3 ESE 9 11 5 6 1009.6 1009.3 0.0
05/12:30am 24.6 21.4 3.3 25 10.4 E 9 11 5 6 1009.7 1009.4 0.0
05/12:00am 25.5 22.4 3.5 24 10.9 E 9 13 5 7 1009.9 1009.6 0.0
 
Date/Time
CDT
Temp
°C
App
Temp
°C
Dew
Point
°C
Rel
Hum
%
Delta-T
°C
Wind Press
QNH
hPa
Press
MSL
hPa
Rain since
9am
mm
Dir  Spd
km/h
Gust
km/h
Spd
kts
Gust
kts
04/11:30pm 28.8 24.4 2.9 19 12.9 ESE 15 19 8 10 1009.9 1009.6 0.0
04/11:00pm 29.2 25.3 3.2 19 13.1 SSE 13 15 7 8 1010.2 1009.9 0.0
04/10:30pm 30.4 26.5 3.4 18 13.7 SSE 13 17 7 9 1009.9 1009.6 0.0
04/10:00pm 30.3 26.8 3.4 18 13.7 S 11 15 6 8 1009.8 1009.5 0.0
04/09:30pm 31.1 27.5 3.2 17 14.2 SSE 11 15 6 8 1009.5 1009.2 0.0
04/09:00pm 32.1 27.6 2.2 15 15.1 S 15 19 8 10 1009.2 1008.9 0.0
04/08:30pm 33.0 28.3 2.9 15 15.4 SSE 17 20 9 11 1008.9 1008.6 0.0
04/08:00pm 33.4 28.5 2.3 14 15.8 SE 17 20 9 11 1008.6 1008.3 0.0
04/07:30pm 34.4 29.1 2.0 13 16.5 SSE 19 24 10 13 1008.2 1007.9 0.0
04/07:00pm 34.9 29.5 2.4 13 16.7 S 20 30 11 16 1007.9 1007.6 0.0
04/06:30pm 35.3 30.1 2.7 13 16.9 SSE 19 30 10 16 1007.6 1007.3 0.0
04/06:07pm 35.7 31.0 3.0 13 17.0 SE 17 22 9 12 1007.4 1007.1 0.0
04/06:00pm 35.6 30.3 3.0 13 17.0 S 20 30 11 16 1007.4 1007.1 0.0
04/05:48pm 35.8 31.1 3.1 13 17.1 S 17 28 9 15 1007.4 1007.1 0.0
04/05:30pm 36.0 30.7 2.1 12 17.5 SE 19 22 10 12 1007.4 1007.1 0.0
04/05:00pm 35.9 30.3 3.2 13 17.1 S 22 37 12 20 1007.4 1007.1 0.0
04/04:30pm 35.8 30.9 2.0 12 17.4 SE 17 30 9 16 1007.7 1007.4 0.0
04/04:00pm 36.0 30.9 3.3 13 17.1 SE 19 28 10 15 1007.9 1007.6 0.0
04/03:30pm 35.8 31.1 3.1 13 17.1 SSE 17 35 9 19 1008.4 1008.1 0.0
04/03:00pm 35.7 30.4 3.0 13 17.1 S 20 35 11 19 1008.7 1008.4 0.0
04/02:30pm 35.7 29.8 4.1 14 16.8 SSE 24 37 13 20 1009.1 1008.8 0.0
04/02:00pm 36.0 31.1 5.3 15 16.6 SSE 20 41 11 22 1009.6 1009.3 0.0
04/01:30pm 35.1 29.3 4.6 15 16.3 SE 24 33 13 18 1010.1 1009.8 0.0
04/01:00pm 34.7 30.0 5.2 16 15.8 S 19 35 10 19 1010.5 1010.2 0.0
04/12:30pm 35.4 31.0 6.6 17 15.9 SSE 19 44 10 24 1010.9 1010.7 0.0
04/12:21pm 34.2 29.4 5.7 17 15.4 SE 20 33 11 18 1011.0 1010.8 0.0
04/12:04pm 34.3 29.7 5.8 17 15.4 SSE 19 39 10 21 1011.1 1010.9 0.0
04/12:00pm 33.7 30.0 6.1 18 15.0 SE 15 22 8 12 1011.1 1010.9 0.0
04/11:30am 33.3 30.3 5.8 18 14.8 SE 11 17 6 9 1011.4 1011.2 0.0
04/11:00am 32.9 29.8 5.5 18 14.6 E 11 22 6 12 1011.7 1011.5 0.0
04/10:30am 32.2 28.7 7.1 21 13.7 NE 15 24 8 13 1011.9 1011.7 0.0
04/10:00am 31.9 27.7 8.2 23 13.2 ENE 20 26 11 14 1012.0 1011.8 0.0
04/09:30am 30.7 26.0 7.8 24 12.6 ENE 22 30 12 16 1012.3 1012.1 0.0
04/09:00am 29.3 23.9 7.8 26 11.7 ENE 26 32 14 17 1012.2 1012.0 0.0
04/08:30am 28.2 23.0 7.4 27 11.2 E 24 30 13 16 1012.3 1012.1 0.0
04/08:00am 25.9 21.2 6.0 28 10.3 E 20 24 11 13 1012.0 1011.8 0.0
04/07:30am 23.7 19.6 6.0 32 9.0 E 17 20 9 11 1011.8 1011.6 0.0
04/07:00am 22.3 18.5 5.7 34 8.3 ESE 15 17 8 9 1011.5 1011.3 0.0
04/06:30am 21.1 17.2 5.5 36 7.8 ESE 15 17 8 9 1011.2 1011.0 0.0
04/06:00am 20.2 16.6 5.1 37 7.4 ESE 13 15 7 8 1010.8 1010.5 0.0
04/05:30am 19.8 16.7 5.5 39 7.1 E 11 13 6 7 1010.4 1010.1 0.0
04/05:00am 19.7 16.9 5.0 38 7.2 E 9 11 5 6 1010.2 1009.9 0.0
04/04:30am 20.9 17.3 4.9 35 7.9 ESE 13 15 7 8 1010.0 1009.7 0.0
04/04:00am 21.9 17.9 4.9 33 8.4 ESE 15 17 8 9 1010.0 1009.7 0.0
04/03:30am 22.5 18.9 5.0 32 8.7 ESE 13 15 7 8 1010.0 1009.7 0.0
04/03:00am 23.5 19.9 4.9 30 9.3 ESE 13 19 7 10 1009.9 1009.6 0.0
04/02:30am 24.6 20.5 4.4 27 10.1 SE 15 19 8 10 1010.1 1009.8 0.0
04/02:00am 25.2 21.6 4.9 27 10.2 SE 13 17 7 9 1010.2 1009.9 0.0
04/01:30am 25.0 21.3 4.7 27 10.2 ESE 13 13 7 7 1010.2 1009.9 0.0
04/01:00am 25.2 22.0 4.9 27 10.2 ESE 11 15 6 8 1010.4 1010.1 0.0
04/12:30am 25.6 22.3 4.7 26 10.6 ESE 11 13 6 7 1010.5 1010.2 0.0
04/12:00am 25.8 22.9 4.9 26 10.6 ESE 9 13 5 7 1010.7 1010.4 0.0
 
Date/Time
CDT
Temp
°C
App
Temp
°C
Dew
Point
°C
Rel
Hum
%
Delta-T
°C
Wind Press
QNH
hPa
Press
MSL
hPa
Rain since
9am
mm
Dir  Spd
km/h
Gust
km/h
Spd
kts
Gust
kts
03/11:30pm 25.7 22.9 5.3 27 10.4 ESE 9 13 5 7 1010.8 1010.5 0.0
03/11:00pm 27.0 23.7 4.7 24 11.3 ESE 11 13 6 7 1010.7 1010.4 0.0
03/10:30pm 27.4 24.2 5.1 24 11.5 ESE 11 13 6 7 1010.6 1010.3 0.0
03/10:00pm 27.9 24.7 4.9 23 11.8 ESE 11 15 6 8 1010.3 1010.0 0.0
03/09:30pm 29.2 25.9 4.6 21 12.7 ESE 11 13 6 7 1009.9 1009.6 0.0
03/09:00pm 30.3 26.5 4.1 19 13.5 SE 13 15 7 8 1009.6 1009.3 0.0
03/08:30pm 31.2 27.4 4.1 18 14.0 SE 13 17 7 9 1009.4 1009.1 0.0
03/08:00pm 32.1 28.3 4.0 17 14.6 ESE 13 17 7 9 1009.0 1008.7 0.0
03/07:30pm 33.0 28.8 3.9 16 15.2 ESE 15 20 8 11 1008.7 1008.4 0.0
03/07:00pm 33.9 28.7 3.7 15 15.7 ESE 20 28 11 15 1008.4 1008.1 0.0
03/06:30pm 34.4 29.5 4.0 15 16.0 SE 19 26 10 14 1008.2 1007.9 0.0
03/06:00pm 34.2 29.6 3.9 15 15.9 SSE 17 20 9 11 1008.0 1007.7 0.0
03/05:30pm 33.9 29.5 4.6 16 15.5 S 17 22 9 12 1008.0 1007.7 0.0
03/05:00pm 34.9 30.1 4.4 15 16.2 SSE 19 30 10 16 1008.0 1007.7 0.0
03/04:30pm 35.1 30.7 4.6 15 16.3 SE 17 26 9 14 1008.2 1007.9 0.0
03/04:00pm 35.6 32.2 4.0 14 16.7 ESE 11 22 6 12 1008.4 1008.1 0.0
03/03:30pm 34.2 30.4 3.9 15 15.9 E 13 24 7 13 1008.7 1008.4 0.0
03/03:00pm 35.0 31.3 4.5 15 16.2 SE 13 28 7 15 1008.9 1008.6 0.0
03/02:30pm 34.5 32.2 5.9 17 15.5 E 7 19 4 10 1009.3 1009.0 0.0
03/02:00pm 34.7 30.9 7.7 19 15.1 ENE 17 24 9 13 1009.7 1009.4 0.0
03/01:30pm 34.0 29.9 7.9 20 14.6 ESE 19 28 10 15 1010.1 1009.8 0.0
03/01:00pm 33.4 29.9 7.4 20 14.3 ESE 15 28 8 15 1010.6 1010.3 0.0
03/12:30pm 33.9 30.5 7.8 20 14.5 NE 15 32 8 17 1011.0 1010.8 0.0
03/12:00pm 32.9 29.8 9.0 23 13.5 E 15 24 8 13 1011.4 1011.2 0.0
03/11:30am 32.3 29.7 9.2 24 13.1 NE 13 20 7 11 1011.7 1011.5 0.0
03/11:00am 32.1 28.2 9.6 25 12.8 ENE 20 30 11 16 1011.9 1011.7 0.0
03/10:30am 31.8 28.0 9.9 26 12.5 NE 20 33 11 18 1012.0 1011.8 0.0
03/10:00am 31.0 26.8 9.8 27 12.0 ENE 22 30 12 16 1012.0 1011.8 0.0
03/09:30am 30.4 25.7 9.3 27 11.8 ENE 24 30 13 16 1012.1 1011.9 0.0
03/09:00am 30.1 25.9 9.6 28 11.5 ENE 22 32 12 17 1012.0 1011.8 0.0
03/08:30am 28.4 24.1 9.2 30 10.6 ENE 22 28 12 15 1011.8 1011.6 0.0
03/08:00am 27.0 23.3 9.4 33 9.7 E 19 22 10 12 1011.5 1011.3 0.0

Other formats

Comma delimited format used in spreadsheet applications
http://www.bom.gov.au/fwo/IDS60801/IDS60801.95481.axf

JavaScript Object Notation format (JSON) in row-major order
http://www.bom.gov.au/fwo/IDS60801/IDS60801.95481.json

Data quality

Most of these data are generated automatically and are frequently updated. Quality checks on data are not normally performed. It is possible for incorrect values to appear. Refer to information at About Latest Weather Observations and please check the disclaimer before using these data.